Time;durP1;ratioP1;P1;durP2;ratioP2;P2;SDS_P1;SDS_P2;PMS_P1;PMS_P2;Temp;Humidity;BMP_temperature;BMP_pressure;BME280_temperature;BME280_humidity;BME280_pressure;Samples;Min_cycle;Max_cycle;Signal;HPM_P1;HPM_P2
2023/07/13 00:01:38;;;;;;;15.55;5.32;;;;;;;;;;6250684;22;20350;-58
2023/07/13 00:04:05;;;;;;;16.25;4.45;;;;;;;;;;6250278;22;20098;-58
2023/07/13 00:06:32;;;;;;;15.43;3.20;;;;;;;;;;6277353;22;20016;-58
2023/07/13 00:08:59;;;;;;;9.52;2.83;;;;;;;;;;6279648;22;20053;-58
2023/07/13 00:11:25;;;;;;;14.30;3.20;;;;;;;;;;6280107;22;20016;-58
2023/07/13 00:13:51;;;;;;;19.85;3.20;;;;;;;;;;6252288;22;20020;-58
2023/07/13 00:16:18;;;;;;;17.42;3.60;;;;;;;;;;6280184;22;20023;-58
2023/07/13 00:18:45;;;;;;;22.75;4.47;;;;;;;;;;6280066;22;20015;-58
2023/07/13 00:21:11;;;;;;;17.73;4.30;;;;;;;;;;6247080;23;20055;-58
2023/07/13 00:23:39;;;;;;;23.83;4.10;;;;;;;;;;6248685;23;20020;-58
2023/07/13 00:26:06;;;;;;;17.67;3.90;;;;;;;;;;6248293;23;20452;-58
2023/07/13 00:28:33;;;;;;;15.73;3.95;;;;;;;;;;6248678;22;20078;-58
2023/07/13 00:30:59;;;;;;;16.20;3.90;;;;;;;;;;6247479;23;20024;-58
2023/07/13 00:33:25;;;;;;;16.27;3.97;;;;;;;;;;6248609;22;20031;-58
2023/07/13 00:35:51;;;;;;;16.90;3.72;;;;;;;;;;6248450;23;20012;-58
2023/07/13 00:38:18;;;;;;;16.30;3.72;;;;;;;;;;6248539;23;20023;-58
2023/07/13 00:40:44;;;;;;;17.88;3.58;;;;;;;;;;6220771;23;20019;-58
2023/07/13 00:43:23;;;;;;;16.45;4.18;;;;;;;;;;6247007;23;20020;-57
2023/07/13 00:45:50;;;;;;;22.93;4.83;;;;;;;;;;6247355;23;20020;-58
2023/07/13 00:48:21;;;;;;;17.38;3.72;;;;;;;;;;6247254;23;20016;-58
2023/07/13 00:50:48;;;;;;;15.93;3.45;;;;;;;;;;6222641;23;20019;-58
2023/07/13 00:53:15;;;;;;;19.05;3.90;;;;;;;;;;6248773;23;20052;-58
2023/07/13 00:55:41;;;;;;;18.55;4.70;;;;;;;;;;6221763;23;20441;-58
2023/07/13 00:58:07;;;;;;;17.25;4.40;;;;;;;;;;6248331;23;20016;-58
2023/07/13 01:00:35;;;;;;;15.73;3.60;;;;;;;;;;6247816;23;20055;-58
2023/07/13 01:03:04;;;;;;;14.27;3.75;;;;;;;;;;6246902;23;20310;-58
2023/07/13 01:05:34;;;;;;;13.25;3.20;;;;;;;;;;6247181;23;20023;-58
2023/07/13 01:08:01;;;;;;;13.75;3.38;;;;;;;;;;6246810;23;20394;-58
2023/07/13 01:10:27;;;;;;;23.85;4.95;;;;;;;;;;6248204;23;20364;-58
2023/07/13 01:12:54;;;;;;;19.50;4.32;;;;;;;;;;6247144;23;20488;-58
2023/07/13 01:15:38;;;;;;;15.40;3.83;;;;;;;;;;6248455;23;20012;-58
2023/07/13 01:18:05;;;;;;;18.77;5.20;;;;;;;;;;6246978;23;20023;-58
2023/07/13 01:20:36;;;;;;;9.43;3.38;;;;;;;;;;6250044;22;20481;-58
2023/07/13 01:23:12;;;;;;;12.07;3.38;;;;;;;;;;6251822;22;20503;-58
2023/07/13 01:25:39;;;;;;;14.68;4.07;;;;;;;;;;6252713;22;20357;-58
2023/07/13 01:28:09;;;;;;;10.50;3.40;;;;;;;;;;6278655;22;20016;-58
2023/07/13 01:30:39;;;;;;;13.68;3.30;;;;;;;;;;6251263;22;20016;-57
2023/07/13 01:33:09;;;;;;;17.45;4.90;;;;;;;;;;6278723;22;20396;-58
2023/07/13 01:35:36;;;;;;;10.02;3.60;;;;;;;;;;6251465;22;20020;-58
2023/07/13 01:38:02;;;;;;;17.83;3.65;;;;;;;;;;6278614;22;20023;-58
2023/07/13 01:40:29;;;;;;;13.15;3.50;;;;;;;;;;6251874;22;20448;-58
2023/07/13 01:42:56;;;;;;;10.73;2.97;;;;;;;;;;6279315;22;20020;-58
2023/07/13 01:45:22;;;;;;;15.25;2.97;;;;;;;;;;6278571;22;20024;-58
2023/07/13 01:47:48;;;;;;;13.48;3.05;;;;;;;;;;6278488;22;20463;-58
2023/07/13 01:50:14;;;;;;;8.10;2.22;;;;;;;;;;6278114;22;20440;-58
2023/07/13 01:52:40;;;;;;;13.63;3.30;;;;;;;;;;6278506;22;20024;-58
2023/07/13 01:55:06;;;;;;;11.88;2.70;;;;;;;;;;6251373;22;20027;-58
2023/07/13 01:57:33;;;;;;;10.43;2.25;;;;;;;;;;6250916;22;20448;-58
2023/07/13 01:59:59;;;;;;;12.15;2.85;;;;;;;;;;6278429;22;20045;-58
2023/07/13 02:02:25;;;;;;;13.35;3.15;;;;;;;;;;6226572;22;20012;-58
2023/07/13 02:04:51;;;;;;;10.85;2.50;;;;;;;;;;6278314;22;20065;-58
2023/07/13 02:07:17;;;;;;;11.88;3.20;;;;;;;;;;6250936;22;20020;-58
2023/07/13 02:09:43;;;;;;;13.40;2.42;;;;;;;;;;6278282;22;20019;-58
2023/07/13 02:12:09;;;;;;;13.23;3.08;;;;;;;;;;6278296;22;20023;-58
2023/07/13 02:14:35;;;;;;;13.73;3.17;;;;;;;;;;6251197;22;20099;-58
2023/07/13 02:17:02;;;;;;;11.82;2.72;;;;;;;;;;6278215;22;20162;-58
2023/07/13 02:19:28;;;;;;;10.15;2.85;;;;;;;;;;6251486;22;20022;-58
2023/07/13 02:21:54;;;;;;;11.93;3.10;;;;;;;;;;6278407;22;20020;-58
2023/07/13 02:24:23;;;;;;;13.00;2.90;;;;;;;;;;6250987;22;20019;-58
2023/07/13 02:26:50;;;;;;;13.05;2.80;;;;;;;;;;6278124;22;20105;-58
2023/07/13 02:29:16;;;;;;;14.52;3.20;;;;;;;;;;6250624;22;20024;-58
2023/07/13 02:31:44;;;;;;;14.10;3.05;;;;;;;;;;6277690;22;20026;-58
2023/07/13 02:34:10;;;;;;;15.05;3.17;;;;;;;;;;6277894;22;20305;-58
2023/07/13 02:36:36;;;;;;;16.88;4.20;;;;;;;;;;6278008;22;20015;-59
2023/07/13 02:39:04;;;;;;;16.20;3.17;;;;;;;;;;6251882;22;20031;-58
2023/07/13 02:41:30;;;;;;;15.70;2.90;;;;;;;;;;6226521;22;20019;-58
2023/07/13 02:44:03;;;;;;;19.42;5.13;;;;;;;;;;6277905;22;20094;-58
2023/07/13 02:46:32;;;;;;;10.82;3.20;;;;;;;;;;6277546;22;20087;-58
2023/07/13 02:48:58;;;;;;;17.70;3.50;;;;;;;;;;6277926;22;20021;-58
2023/07/13 02:51:25;;;;;;;16.27;3.50;;;;;;;;;;6277847;22;20026;-58
2023/07/13 02:53:51;;;;;;;17.50;3.28;;;;;;;;;;6250784;22;20016;-57
2023/07/13 02:56:17;;;;;;;10.82;3.70;;;;;;;;;;6250941;22;20015;-57
2023/07/13 02:58:43;;;;;;;15.25;3.80;;;;;;;;;;6250859;22;20020;-57
2023/07/13 03:01:10;;;;;;;12.40;3.53;;;;;;;;;;6278421;22;20015;-57
2023/07/13 03:03:36;;;;;;;17.83;4.07;;;;;;;;;;6250767;22;20020;-58
2023/07/13 03:06:05;;;;;;;12.85;3.70;;;;;;;;;;6277752;22;20019;-58
2023/07/13 03:08:31;;;;;;;14.88;3.90;;;;;;;;;;6277638;22;20066;-58
2023/07/13 03:11:05;;;;;;;11.15;3.47;;;;;;;;;;6250741;22;20020;-58
2023/07/13 03:13:31;;;;;;;18.40;4.70;;;;;;;;;;6277669;22;20023;-58
2023/07/13 03:15:57;;;;;;;14.93;3.15;;;;;;;;;;6250507;22;20047;-57
2023/07/13 03:18:23;;;;;;;13.18;4.00;;;;;;;;;;6277223;22;20470;-58
2023/07/13 03:20:53;;;;;;;18.42;4.03;;;;;;;;;;6276935;22;20436;-58
2023/07/13 03:23:19;;;;;;;13.27;3.67;;;;;;;;;;6277197;22;20428;-57
2023/07/13 03:25:45;;;;;;;14.23;3.75;;;;;;;;;;6277553;22;20082;-58
2023/07/13 03:28:12;;;;;;;22.83;4.60;;;;;;;;;;6278546;22;20015;-58
2023/07/13 03:30:38;;;;;;;23.17;5.20;;;;;;;;;;6277546;22;20055;-58
2023/07/13 03:33:04;;;;;;;22.00;4.40;;;;;;;;;;6277449;22;20034;-58
2023/07/13 03:35:32;;;;;;;14.63;4.90;;;;;;;;;;6249919;22;20012;-58
2023/07/13 03:37:58;;;;;;;17.45;3.67;;;;;;;;;;6277484;22;20016;-58
2023/07/13 03:40:26;;;;;;;14.88;3.85;;;;;;;;;;6277436;22;20020;-58
2023/07/13 03:42:52;;;;;;;22.88;5.40;;;;;;;;;;6276611;22;20460;-58
2023/07/13 03:45:18;;;;;;;11.57;3.72;;;;;;;;;;6278202;22;20074;-57
2023/07/13 03:47:44;;;;;;;12.18;3.38;;;;;;;;;;6250726;22;20023;-57
2023/07/13 03:50:10;;;;;;;16.40;3.45;;;;;;;;;;6277468;22;20051;-57
2023/07/13 03:52:37;;;;;;;14.43;3.95;;;;;;;;;;6278108;22;20016;-57
2023/07/13 03:55:03;;;;;;;22.63;4.25;;;;;;;;;;6277309;22;20086;-57
2023/07/13 03:57:29;;;;;;;15.82;3.42;;;;;;;;;;6277390;22;20012;-57
2023/07/13 03:59:55;;;;;;;15.70;3.60;;;;;;;;;;6277418;22;20023;-57
2023/07/13 04:02:21;;;;;;;13.80;3.75;;;;;;;;;;6278038;22;20026;-58
2023/07/13 04:04:47;;;;;;;18.98;4.05;;;;;;;;;;6250597;22;20015;-58
2023/07/13 04:07:14;;;;;;;16.60;4.03;;;;;;;;;;6250945;22;20015;-58
2023/07/13 04:09:40;;;;;;;12.15;3.10;;;;;;;;;;6277309;22;20015;-58
2023/07/13 04:12:06;;;;;;;18.08;3.88;;;;;;;;;;6277276;22;20023;-57
2023/07/13 04:14:32;;;;;;;11.73;4.45;;;;;;;;;;6277226;22;20019;-58
2023/07/13 04:16:58;;;;;;;13.48;3.78;;;;;;;;;;6277614;22;20015;-58
2023/07/13 04:19:25;;;;;;;10.95;3.13;;;;;;;;;;6277255;22;20011;-58
2023/07/13 04:21:51;;;;;;;12.63;3.40;;;;;;;;;;6276831;22;20021;-58
2023/07/13 04:24:17;;;;;;;8.15;2.22;;;;;;;;;;6250177;22;20058;-57
2023/07/13 04:26:43;;;;;;;12.55;4.78;;;;;;;;;;6250868;22;20016;-58
2023/07/13 04:29:09;;;;;;;11.55;2.90;;;;;;;;;;6250503;22;20019;-57
2023/07/13 04:31:35;;;;;;;9.70;2.40;;;;;;;;;;6249850;22;20103;-57
2023/07/13 04:34:02;;;;;;;9.18;2.60;;;;;;;;;;6250175;22;20094;-58
2023/07/13 04:36:29;;;;;;;6.32;2.72;;;;;;;;;;6278288;22;20020;-58
2023/07/13 04:38:55;;;;;;;15.70;3.83;;;;;;;;;;6277247;22;20019;-57
2023/07/13 04:41:23;;;;;;;10.88;2.50;;;;;;;;;;6250264;22;20031;-57
2023/07/13 04:43:49;;;;;;;11.88;3.95;;;;;;;;;;6250173;22;20019;-58
2023/07/13 04:46:20;;;;;;;10.38;2.63;;;;;;;;;;6277143;22;20012;-57
2023/07/13 04:48:46;;;;;;;;;;;;;;;;;;6250988;22;20020;-57
2023/07/13 04:51:12;;;;;;;16.83;3.78;;;;;;;;;;6277046;22;19985;-58
2023/07/13 04:53:38;;;;;;;13.60;3.10;;;;;;;;;;6277431;22;20026;-58
2023/07/13 04:56:05;;;;;;;15.45;4.40;;;;;;;;;;6278534;22;20095;-58
2023/07/13 04:58:31;;;;;;;13.50;4.03;;;;;;;;;;6279992;22;20317;-58
2023/07/13 05:01:01;;;;;;;13.07;3.50;;;;;;;;;;6279027;22;20024;-58
2023/07/13 05:03:27;;;;;;;20.17;5.68;;;;;;;;;;6251957;22;20019;-58
2023/07/13 05:05:57;;;;;;;13.68;3.05;;;;;;;;;;6252036;22;20012;-58
2023/07/13 05:08:23;;;;;;;;;;;17.00;99.90;;;;;;6252301;22;20015;-58
2023/07/13 05:10:49;;;;;;;15.15;3.40;;;;;;;;;;6278893;22;19954;-58
2023/07/13 05:13:15;;;;;;;14.55;3.45;;;;;;;;;;6251857;22;20015;-58
2023/07/13 05:15:41;;;;;;;13.18;4.22;;;;;;;;;;6278371;22;20388;-58
2023/07/13 05:18:07;;;;;;;14.90;4.25;;;;;;;;;;6278862;22;20068;-58
2023/07/13 05:20:33;;;;;;;12.55;3.10;;;;;;;;;;6278544;22;20019;-58
2023/07/13 05:22:59;;;;;;;17.10;3.78;;;;;;;;;;6279546;22;20023;-58
2023/07/13 05:25:25;;;;;;;10.30;3.10;;;;;;;;;;6252063;22;20054;-58
2023/07/13 05:27:52;;;;;;;14.00;2.50;;;;;;;;;;6252084;22;20016;-58
2023/07/13 05:30:18;;;;;;;8.05;2.53;;;;;;;;;;6278621;22;20016;-58
2023/07/13 05:32:44;;;;;;;14.15;2.75;;;;;;;;;;6278335;22;20016;-58
2023/07/13 05:35:09;;;;;;;12.18;2.85;;;18.40;99.90;;;;;;6279272;22;20050;-59
2023/07/13 05:37:36;;;;;;;17.08;2.97;;;;;;;;;;6278568;22;20012;-58
2023/07/13 05:40:02;;;;;;;11.93;2.80;;;;;;;;;;6279313;22;20424;-58
2023/07/13 05:42:28;;;;;;;11.52;3.03;;;;;;;;;;6278612;22;20016;-58
2023/07/13 05:44:54;;;;;;;10.95;3.20;;;;;;;;;;6278867;22;20420;-59
2023/07/13 05:47:20;;;;;;;21.48;3.50;;;;;;;;;;6252484;22;20297;-58
2023/07/13 05:49:46;;;;;;;12.15;2.58;;;;;;;;;;6251838;22;20069;-58
2023/07/13 05:52:12;;;;;;;16.80;3.00;;;;;;;;;;6278134;22;20023;-58
2023/07/13 05:54:38;;;;;;;13.40;3.30;;;;;;;;;;6250998;22;20011;-58
2023/07/13 05:57:04;;;;;;;14.23;2.88;;;;;;;;;;6251450;22;20098;-59
2023/07/13 05:59:30;;;;;;;12.55;3.15;;;;;;;;;;6278481;22;20081;-58
2023/07/13 06:01:57;;;;;;;10.25;2.90;;;;;;;;;;6251882;22;20019;-58
2023/07/13 06:04:23;;;;;;;11.30;3.13;;;;;;;;;;6251570;22;20015;-58
2023/07/13 06:06:49;;;;;;;14.13;2.75;;;;;;;;;;6250848;22;20320;-58
2023/07/13 06:09:15;;;;;;;11.43;3.50;;;;;;;;;;6250860;22;20039;-58
2023/07/13 06:11:41;;;;;;;9.88;3.22;;;;;;;;;;6278286;22;20012;-56
2023/07/13 06:14:07;;;;;;;9.40;2.58;;;;;;;;;;6251201;22;20020;-57
2023/07/13 06:16:33;;;;;;;8.35;2.78;;;;;;;;;;6278252;22;20020;-58
2023/07/13 06:18:59;;;;;;;9.40;2.40;;;19.40;99.90;;;;;;6278283;22;20015;-57
2023/07/13 06:21:25;;;;;;;10.50;3.38;;;;;;;;;;6278247;22;20114;-56
2023/07/13 06:23:52;;;;;;;15.35;2.95;;;;;;;;;;6278177;22;20324;-57
2023/07/13 06:26:19;;;;;;;12.02;2.63;;;19.70;99.90;;;;;;6278152;22;20091;-56
2023/07/13 06:28:45;;;;;;;8.90;2.55;;;20.20;99.90;;;;;;6225830;22;20023;-56
2023/07/13 06:31:12;;;;;;;10.05;2.70;;;20.50;99.90;;;;;;6250691;22;20320;-57
2023/07/13 06:33:38;;;;;;;9.32;2.60;;;;;;;;;;6278731;22;20012;-56
2023/07/13 06:36:06;;;;;;;8.85;2.53;;;20.60;99.90;;;;;;6278663;22;20099;-56
2023/07/13 06:38:32;;;;;;;8.52;2.08;;;;;;;;;;6278592;22;20019;-57
2023/07/13 06:40:58;;;;;;;8.93;3.28;;;20.10;99.90;;;;;;6277972;22;20045;-58
2023/07/13 06:43:24;;;;;;;9.55;2.70;;;;;;;;;;6277991;22;20107;-58
2023/07/13 06:45:51;;;;;;;7.75;2.30;;;20.60;99.90;;;;;;6225595;22;20428;-58
2023/07/13 06:48:18;;;;;;;7.22;2.00;;;20.70;99.90;;;;;;6277565;22;20506;-57
2023/07/13 06:50:45;;;;;;;4.68;1.30;;;21.20;99.90;;;;;;6277902;22;20018;-58
2023/07/13 06:53:12;;;;;;;7.60;1.58;;;21.20;99.90;;;;;;6278556;22;20073;-58
2023/07/13 06:55:38;;;;;;;10.52;1.67;;;21.10;99.90;;;;;;6277748;22;20022;-58
2023/07/13 06:58:04;;;;;;;5.85;1.40;;;21.10;99.90;;;;;;6277766;22;20023;-58
2023/07/13 07:00:30;;;;;;;4.80;1.70;;;21.00;99.90;;;;;;6250307;22;20016;-59
2023/07/13 07:02:56;;;;;;;5.70;1.40;;;20.90;99.90;;;;;;6250715;22;20028;-58
2023/07/13 07:05:22;;;;;;;8.77;1.35;;;;;;;;;;6278410;22;20098;-59
2023/07/13 07:07:50;;;;;;;6.03;1.50;;;;;;;;;;6250893;22;20016;-58
2023/07/13 07:10:16;;;;;;;7.07;1.33;;;;;;;;;;6278386;22;20054;-57
2023/07/13 07:12:42;;;;;;;8.90;2.03;;;20.50;99.90;;;;;;6250273;22;20069;-58
2023/07/13 07:15:08;;;;;;;9.45;2.20;;;;;;;;;;6277649;22;20099;-58
2023/07/13 07:17:34;;;;;;;11.38;2.45;;;20.60;99.90;;;;;;6277211;22;20466;-58
2023/07/13 07:20:00;;;;;;;13.57;2.53;;;;;;;;;;6277672;22;20086;-58
2023/07/13 07:22:30;;;;;;;9.75;2.40;;;;;;;;;;6279083;22;20051;-59
2023/07/13 07:24:56;;;;;;;8.43;2.03;;;;;;;;;;6250164;22;20020;-58
2023/07/13 07:27:22;;;;;;;7.32;2.10;;;20.60;99.90;;;;;;6277450;22;20478;-59
2023/07/13 07:29:48;;;;;;;7.40;1.88;;;;;;;;;;6250440;22;20467;-60
2023/07/13 07:32:14;;;;;;;8.45;2.25;;;;;;;;;;6250060;22;20049;-59
2023/07/13 07:34:40;;;;;;;9.48;3.28;;;;;;;;;;6251467;22;20055;-60
2023/07/13 07:37:06;;;;;;;5.68;1.83;;;20.50;99.90;;;;;;6250564;22;20075;-62
2023/07/13 07:39:33;;;;;;;14.98;3.13;;;;;;;;;;6251099;22;20099;-59
2023/07/13 07:41:59;;;;;;;13.40;3.13;;;;;;;;;;6277483;22;20047;-58
2023/07/13 07:44:26;;;;;;;12.73;2.80;;;;;;;;;;6277054;22;20467;-59
2023/07/13 07:46:52;;;;;;;9.98;2.53;;;20.60;99.90;;;;;;6277414;22;20087;-58
2023/07/13 07:49:18;;;;;;;10.27;3.30;;;20.60;99.90;;;;;;6277400;22;20459;-60
2023/07/13 07:51:44;;;;;;;9.07;2.70;;;20.50;99.90;;;;;;6277784;22;20308;-60
2023/07/13 07:54:10;;;;;;;8.93;2.70;;;;;;;;;;6277249;22;20320;-59
2023/07/13 07:56:36;;;;;;;16.90;3.25;;;20.50;99.90;;;;;;6278004;22;20087;-58
2023/07/13 07:59:02;;;;;;;9.93;2.80;;;;;;;;;;6277371;22;20062;-59
2023/07/13 08:01:27;;;;;;;13.77;2.60;;;20.50;99.90;;;;;;6277371;22;20027;-58
2023/07/13 08:03:54;;;;;;;10.13;2.40;;;;;;;;;;6277121;22;20008;-59
2023/07/13 08:06:20;;;;;;;10.55;2.60;;;;;;;;;;6249917;22;20027;-60
2023/07/13 08:08:46;;;;;;;13.25;3.20;;;;;;;;;;6276542;22;20073;-59
2023/07/13 08:11:12;;;;;;;10.65;3.03;;;;;;;;;;6250269;22;20332;-59
2023/07/13 08:13:38;;;;;;;9.15;3.17;;;;;;;;;;6276889;22;20441;-59
2023/07/13 08:16:05;;;;;;;12.65;3.17;;;;;;;;;;6277215;22;20015;-59
2023/07/13 08:18:31;;;;;;;10.02;2.75;;;;;;;;;;6276881;22;20467;-59
2023/07/13 08:20:58;;;;;;;11.60;2.88;;;;;;;;;;6276908;22;20012;-60
2023/07/13 08:23:25;;;;;;;13.25;3.55;;;20.30;99.90;;;;;;6277306;22;20034;-59
2023/07/13 08:25:54;;;;;;;13.55;3.00;;;20.20;99.90;;;;;;6277203;22;20069;-60
2023/07/13 08:28:21;;;;;;;4.32;1.45;;;19.90;99.90;;;;;;6277344;22;20459;-60
2023/07/13 08:30:51;;;;;;;5.60;1.38;;;;;;;;;;6279326;22;20019;-59
2023/07/13 08:33:18;;;;;;;5.35;1.38;;;;;;;;;;6252193;22;20099;-59
2023/07/13 08:35:50;;;;;;;5.28;1.77;;;20.60;99.90;;;;;;6251702;22;20019;-60
2023/07/13 08:38:17;;;;;;;3.15;1.17;;;20.90;99.90;;;;;;6279218;22;20016;-60
2023/07/13 08:40:44;;;;;;;5.68;1.40;;;;;;;;;;6279141;22;20015;-60
2023/07/13 08:43:18;;;;;;;2.13;1.20;;;20.80;99.90;;;;;;6278856;22;20016;-59
2023/07/13 08:45:48;;;;;;;4.38;1.17;;;20.60;99.90;;;;;;6279871;22;20027;-66
2023/07/13 08:48:37;;;;;;;4.03;1.20;;;20.50;99.90;;;;;;6279130;22;20016;-57
2023/07/13 08:51:19;;;;;;;5.57;1.20;;;;;;;;;;6279161;22;20095;-58
2023/07/13 08:53:53;;;;;;;5.47;1.30;;;;;;;;;;6278994;22;20023;-59
2023/07/13 08:56:23;;;;;;;6.72;1.50;;;;;;;;;;6226269;22;20446;-59
2023/07/13 08:58:54;;;;;;;4.38;1.10;;;;;;;;;;6251511;22;20328;-59
2023/07/13 09:01:20;;;;;;;4.72;1.10;;;;;;;;;;6226723;22;20051;-59
2023/07/13 09:03:57;;;;;;;2.78;1.10;;;20.60;99.90;;;;;;6279073;22;20081;-59
2023/07/13 09:06:28;;;;;;;7.85;1.85;;;;;;;;;;6278920;22;20047;-60
2023/07/13 09:09:13;;;;;;;3.60;1.50;;;20.80;99.90;;;;;;6251706;22;20020;-59
2023/07/13 09:11:52;;;;;;;2.67;1.25;;;20.50;99.90;;;;;;6255064;22;20046;-59
2023/07/13 09:14:33;;;;;;;3.55;1.23;;;;;;;;;;6251522;22;20016;-59
2023/07/13 09:17:00;;;;;;;3.35;1.10;;;21.00;99.90;;;;;;6278897;22;20098;-59
2023/07/13 09:19:32;;;;;;;5.88;1.23;;;21.30;99.90;;;;;;6278838;22;20059;-60
2023/07/13 09:22:01;;;;;;;4.13;1.30;;;20.90;99.90;;;;;;6279024;22;20016;-60
2023/07/13 09:24:47;;;;;;;5.10;1.27;;;21.50;99.90;;;;;;6252615;22;20012;-61
2023/07/13 09:27:36;;;;;;;3.70;1.30;;;22.20;99.90;;;;;;6227156;22;20020;-60
2023/07/13 09:30:13;;;;;;;3.42;1.33;;;22.20;99.90;;;;;;6279007;22;20042;-60
2023/07/13 09:32:52;;;;;;;3.63;0.85;;;22.70;99.90;;;;;;6278739;22;20027;-58
2023/07/13 09:35:28;;;;;;;4.93;0.95;;;22.10;99.90;;;;;;6278616;22;20016;-57
2023/07/13 09:38:17;;;;;;;1.95;0.85;;;22.00;99.90;;;;;;6279324;22;20012;-57
2023/07/13 09:40:55;;;;;;;4.80;2.00;;;22.30;99.90;;;;;;6277198;22;20016;-59
2023/07/13 09:43:22;;;;;;;3.60;1.05;;;22.50;99.90;;;;;;6278540;22;20122;-58
2023/07/13 09:45:48;;;;;;;3.10;1.00;;;22.50;99.90;;;;;;6278156;22;20020;-58
2023/07/13 09:48:15;;;;;;;3.15;1.23;;;22.80;99.90;;;;;;6278516;22;20011;-58
2023/07/13 09:50:42;;;;;;;5.85;1.10;;;23.10;99.90;;;;;;6251485;22;20012;-58
2023/07/13 09:53:31;;;;;;;4.80;1.27;;;23.10;99.90;;;;;;6278108;22;20353;-58
2023/07/13 09:55:56;;;;;;;4.53;1.00;;;22.70;99.90;;;;;;6278405;22;20022;-59
2023/07/13 09:58:29;;;;;;;3.92;1.08;;;23.20;99.90;;;;;;6251356;22;20023;-59
2023/07/13 10:01:04;;;;;;;4.43;1.20;;;23.00;99.90;;;;;;6279177;22;20084;-59
2023/07/13 10:03:39;;;;;;;4.32;1.30;;;23.10;99.90;;;;;;6279030;22;20351;-59
2023/07/13 10:06:14;;;;;;;5.45;1.27;;;23.00;99.90;;;;;;6251702;22;20051;-58
2023/07/13 10:08:40;;;;;;;5.13;1.17;;;22.70;99.90;;;;;;6251230;22;20012;-58
2023/07/13 10:11:12;;;;;;;5.07;1.27;;;22.70;99.90;;;;;;6225884;22;20107;-58
2023/07/13 10:13:44;;;;;;;5.57;1.13;;;22.70;99.90;;;;;;6251205;22;20432;-62
2023/07/13 10:16:10;;;;;;;5.10;1.67;;;22.90;99.90;;;;;;6252225;22;20016;-63
2023/07/13 10:19:15;;;;;;;5.78;1.27;;;23.20;99.90;;;;;;6251226;22;20026;-67
2023/07/13 10:21:55;;;;;;;4.38;1.40;;;23.40;99.90;;;;;;6245563;23;20024;-65
2023/07/13 10:29:37;;;;;;;4.80;1.15;;;23.40;99.90;;;;;;6197833;22;20083;-63
2023/07/13 10:32:11;;;;;;;4.50;1.38;;;23.70;99.90;;;;;;6273841;22;20047;-66
2023/07/13 10:34:37;;;;;;;3.47;1.17;;;23.40;99.90;;;;;;6274027;22;20095;-69
2023/07/13 10:37:05;;;;;;;4.30;1.30;;;23.40;99.90;;;;;;6274408;22;20429;-66
2023/07/13 10:39:33;;;;;;;5.68;1.45;;;23.40;99.90;;;;;;6274344;22;20023;-62
2023/07/13 10:42:03;;;;;;;3.03;1.40;;;23.60;99.90;;;;;;6275208;22;20024;-65
2023/07/13 10:44:31;;;;;;;3.95;1.02;;;23.60;99.90;;;;;;6248500;22;20047;-65
2023/07/13 10:47:08;;;;;;;7.70;1.48;;;23.50;99.90;;;;;;6275629;22;20019;-69
2023/07/13 10:49:36;;;;;;;7.97;2.00;;;23.80;99.90;;;;;;6274723;22;20055;-69
2023/07/13 10:52:03;;;;;;;5.00;1.48;;;23.60;99.90;;;;;;6274051;22;20120;-66
2023/07/13 10:54:34;;;;;;;3.75;1.23;;;23.90;99.90;;;;;;6274240;22;20047;-64
2023/07/13 10:57:21;;;;;;;3.47;1.25;;;23.70;99.90;;;;;;6275170;22;20450;-61
2023/07/13 11:00:15;;;;;;;4.22;1.50;;;23.80;99.90;;;;;;6274163;22;20026;-64
2023/07/13 11:02:42;;;;;;;6.95;1.23;;;23.40;99.90;;;;;;6223590;22;20028;-64
2023/07/13 11:05:40;;;;;;;4.20;1.50;;;23.80;99.90;;;;;;6245444;22;20034;-60
2023/07/13 11:08:32;;;;;;;3.90;1.10;;;23.50;99.90;;;;;;6207330;22;20058;-60
2023/07/13 11:10:58;;;;;;;4.47;1.48;;;23.60;99.90;;;;;;6274216;22;20458;-65
2023/07/13 11:13:47;;;;;;;4.65;1.02;;;23.20;99.90;;;;;;6247874;22;20470;-65
2023/07/13 11:16:33;;;;;;;6.30;1.85;;;23.40;99.90;;;;;;6248129;22;20023;-66
2023/07/13 11:19:02;;;;;;;5.97;1.40;;;23.60;99.90;;;;;;6274232;22;20020;-65
2023/07/13 11:21:30;;;;;;;5.30;1.50;;;23.70;99.90;;;;;;6275568;22;20526;-65
2023/07/13 11:24:15;;;;;;;3.95;1.30;;;24.10;99.90;;;;;;6275270;22;20086;-66
2023/07/13 11:26:47;;;;;;;7.85;1.58;;;23.90;99.90;;;;;;6274806;22;20015;-66
2023/07/13 11:29:36;;;;;;;5.65;1.98;;;24.10;99.90;;;;;;6275027;22;20110;-64
2023/07/13 11:32:26;;;;;;;6.20;1.65;;;24.20;99.90;;;;;;6275170;22;20042;-64
2023/07/13 11:34:54;;;;;;;4.25;1.77;;;24.20;99.90;;;;;;6274871;22;20118;-64
2023/07/13 11:37:22;;;;;;;5.90;1.83;;;23.90;99.90;;;;;;6247688;22;20522;-64
2023/07/13 11:39:48;;;;;;;3.97;1.27;;;23.90;99.90;;;;;;6246582;22;20030;-65
2023/07/13 11:42:17;;;;;;;2.70;0.80;;;24.00;99.90;;;;;;6222751;22;20498;-67
2023/07/13 11:44:48;;;;;;;2.78;1.02;;;23.60;99.90;;;;;;6275392;22;20046;-67
2023/07/13 11:47:21;;;;;;;4.25;1.20;;;23.50;99.90;;;;;;6247997;22;20031;-63
2023/07/13 11:49:56;;;;;;;4.50;1.23;;;23.80;99.90;;;;;;6247422;22;20024;-66
2023/07/13 11:52:29;;;;;;;7.97;1.88;;;23.90;99.90;;;;;;6275264;22;20008;-65
2023/07/13 11:54:56;;;;;;;5.38;1.60;;;24.00;99.90;;;;;;6223137;22;20432;-66
2023/07/13 11:57:31;;;;;;;2.85;1.08;;;23.90;99.90;;;;;;6275040;22;20016;-65
2023/07/13 11:59:59;;;;;;;3.95;1.35;;;24.10;99.90;;;;;;6275519;22;20024;-64
2023/07/13 12:02:38;;;;;;;3.75;1.42;;;24.10;99.90;;;;;;6274682;22;20023;-62
2023/07/13 12:05:06;;;;;;;5.32;1.40;;;24.10;99.90;;;;;;6274981;22;20011;-62
2023/07/13 12:07:33;;;;;;;4.32;1.27;;;24.00;99.90;;;;;;6275514;22;20022;-63
2023/07/13 12:10:18;;;;;;;6.88;1.35;;;24.20;99.90;;;;;;6275099;22;20043;-65
2023/07/13 12:12:55;;;;;;;3.08;1.15;;;24.50;99.90;;;;;;6275523;22;20020;-64
2023/07/13 12:15:22;;;;;;;2.72;1.10;;;24.80;99.90;;;;;;6274609;22;20466;-63
2023/07/13 12:17:48;;;;;;;5.00;1.30;;;24.50;99.90;;;;;;6274958;22;20055;-63
2023/07/13 12:20:28;;;;;;;2.38;0.90;;;24.40;99.90;;;;;;6275034;22;20077;-64
2023/07/13 12:22:54;;;;;;;5.68;1.05;;;24.00;99.90;;;;;;6275515;22;20087;-63
2023/07/13 12:25:21;;;;;;;3.60;1.02;;;;;;;;;;6274727;22;20086;-65
2023/07/13 12:27:49;;;;;;;2.13;0.70;;;23.80;99.90;;;;;;6275280;22;20125;-65
2023/07/13 12:30:35;;;;;;;4.43;1.00;;;24.00;99.90;;;;;;6242385;23;20462;-61
2023/07/13 12:33:01;;;;;;;5.88;1.10;;;;;;;;;;6242368;23;20031;-61
2023/07/13 12:35:32;;;;;;;3.13;0.95;;;24.20;99.90;;;;;;6244419;23;20336;-62
2023/07/13 12:38:00;;;;;;;5.03;1.25;;;24.20;99.90;;;;;;6243769;22;20083;-63
2023/07/13 12:40:33;;;;;;;3.50;1.00;;;24.20;99.90;;;;;;6244002;22;20070;-62
2023/07/13 12:42:59;;;;;;;4.00;1.15;;;;;;;;;;6240109;23;20078;-58
2023/07/13 12:45:28;;;;;;;2.50;0.90;;;24.40;99.90;;;;;;6242259;23;20031;-64
2023/07/13 12:48:04;;;;;;;3.78;1.10;;;24.50;99.90;;;;;;6243250;22;20433;-62
2023/07/13 12:50:42;;;;;;;5.40;1.45;;;24.40;99.90;;;;;;6244778;22;20099;-63
2023/07/13 12:53:20;;;;;;;6.47;1.23;;;24.20;99.90;;;;;;6243655;22;20039;-62
2023/07/13 12:55:49;;;;;;;4.72;2.08;;;24.00;99.90;;;;;;6243777;22;20024;-69
2023/07/13 12:58:54;;;;;;;4.53;1.30;;;23.60;99.90;;;;;;6244274;22;20016;-63
2023/07/13 13:01:23;;;;;;;4.72;1.20;;;;;;;;;;6196779;22;20078;-66
2023/07/13 13:03:53;;;;;;;6.53;1.15;;;23.40;99.90;;;;;;6244330;22;20027;-61
2023/07/13 13:06:18;;;;;;;3.35;0.90;;;23.20;99.90;;;;;;6242003;23;20102;-64
2023/07/13 13:08:49;;;;;;;4.50;0.90;;;23.10;99.90;;;;;;6244209;22;20063;-60
2023/07/13 13:11:16;;;;;;;3.50;0.90;;;23.00;99.90;;;;;;6242588;23;20070;-58
2023/07/13 13:13:48;;;;;;;3.15;0.82;;;23.20;99.90;;;;;;6242310;23;20016;-60
2023/07/13 13:16:26;;;;;;;3.20;0.73;;;23.20;99.90;;;;;;6244679;22;20054;-59
2023/07/13 13:18:54;;;;;;;2.47;1.10;;;23.40;99.90;;;;;;6246354;23;20336;-57
2023/07/13 13:21:20;;;;;;;3.78;1.33;;;23.30;99.90;;;;;;6245750;22;20020;-59
2023/07/13 13:23:49;;;;;;;4.25;1.20;;;23.60;99.90;;;;;;6246053;22;20435;-58
2023/07/13 13:26:15;;;;;;;4.88;1.25;;;;;;;;;;6245706;22;20095;-58
2023/07/13 13:28:43;;;;;;;4.72;0.80;;;23.10;99.90;;;;;;6244133;23;20035;-58
2023/07/13 13:31:13;;;;;;;4.07;1.05;;;22.90;99.90;;;;;;6268624;22;20027;-57
2023/07/13 13:33:45;;;;;;;3.30;0.88;;;22.80;99.90;;;;;;6275117;22;20031;-59
2023/07/13 13:36:33;;;;;;;6.57;1.42;;;22.80;99.90;;;;;;6274411;22;20015;-59
2023/07/13 13:39:01;;;;;;;5.90;1.65;;;;;;;;;;6248832;22;20347;-58
2023/07/13 13:41:33;;;;;;;7.28;1.17;;;;;;;;;;6276856;22;20447;-58
2023/07/13 13:43:59;;;;;;;3.67;1.05;;;;;;;;;;6276147;22;20373;-60
2023/07/13 13:46:25;;;;;;;5.20;1.23;;;;;;;;;;6275901;22;20479;-58
2023/07/13 13:48:52;;;;;;;6.32;1.25;;;;;;;;;;6275550;22;20016;-58
2023/07/13 13:51:20;;;;;;;5.22;1.20;;;22.60;99.90;;;;;;6275945;22;20579;-58
2023/07/13 13:53:47;;;;;;;3.47;1.40;;;22.40;99.90;;;;;;6249536;22;20059;-58
2023/07/13 13:56:14;;;;;;;7.47;1.50;;;;;;;;;;6276180;22;20016;-59
2023/07/13 13:58:40;;;;;;;3.85;1.55;;;;;;;;;;6248512;22;20050;-59
2023/07/13 14:01:12;;;;;;;4.47;1.30;;;;;;;;;;6275674;22;20024;-69
2023/07/13 14:03:38;;;;;;;3.28;1.23;;;22.70;99.90;;;;;;6275979;22;20344;-71